sensor_id;sensor_type;location;lat;lon;timestamp;pressure;altitude;pressure_sealevel;temperature;humidity
56006;BME280;41888;44.696;10.522;2023-02-17T00:01:30;101891.66;;;3.67;100.00
56006;BME280;41888;44.696;10.522;2023-02-17T00:03:57;101894.28;;;3.67;100.00
56006;BME280;41888;44.696;10.522;2023-02-17T00:06:26;101902.28;;;3.65;100.00
56006;BME280;41888;44.696;10.522;2023-02-17T00:08:53;101898.63;;;3.57;100.00
56006;BME280;41888;44.696;10.522;2023-02-17T00:11:19;101900.19;;;3.59;100.00
56006;BME280;41888;44.696;10.522;2023-02-17T00:13:46;101902.22;;;3.56;100.00
56006;BME280;41888;44.696;10.522;2023-02-17T00:16:17;101903.72;;;3.80;100.00
56006;BME280;41888;44.696;10.522;2023-02-17T00:18:44;101902.88;;;3.80;100.00
56006;BME280;41888;44.696;10.522;2023-02-17T00:21:18;101897.56;;;3.91;100.00
56006;BME280;41888;44.696;10.522;2023-02-17T00:23:47;101900.06;;;3.93;100.00
56006;BME280;41888;44.696;10.522;2023-02-17T00:26:14;101899.25;;;3.81;100.00
56006;BME280;41888;44.696;10.522;2023-02-17T00:28:41;101895.38;;;3.64;100.00
56006;BME280;41888;44.696;10.522;2023-02-17T00:31:19;101899.19;;;3.60;100.00
56006;BME280;41888;44.696;10.522;2023-02-17T00:33:45;101896.25;;;3.54;100.00
56006;BME280;41888;44.696;10.522;2023-02-17T00:36:14;101876.38;;;3.50;100.00
56006;BME280;41888;44.696;10.522;2023-02-17T00:38:40;101886.47;;;3.76;100.00
56006;BME280;41888;44.696;10.522;2023-02-17T00:41:06;101890.06;;;3.75;100.00
56006;BME280;41888;44.696;10.522;2023-02-17T00:43:32;101900.47;;;3.77;100.00
56006;BME280;41888;44.696;10.522;2023-02-17T00:45:58;101903.31;;;3.53;100.00
56006;BME280;41888;44.696;10.522;2023-02-17T00:48:24;101900.69;;;3.42;100.00
56006;BME280;41888;44.696;10.522;2023-02-17T00:50:51;101910.75;;;3.37;100.00
56006;BME280;41888;44.696;10.522;2023-02-17T00:53:17;101907.75;;;3.42;100.00
56006;BME280;41888;44.696;10.522;2023-02-17T00:55:43;101914.31;;;3.47;100.00
56006;BME280;41888;44.696;10.522;2023-02-17T00:58:09;101907.47;;;3.56;100.00
56006;BME280;41888;44.696;10.522;2023-02-17T01:00:35;101912.34;;;3.60;100.00
56006;BME280;41888;44.696;10.522;2023-02-17T01:03:01;101905.06;;;3.64;100.00
56006;BME280;41888;44.696;10.522;2023-02-17T01:05:28;101899.28;;;3.27;100.00
56006;BME280;41888;44.696;10.522;2023-02-17T01:07:55;101905.72;;;3.23;100.00
56006;BME280;41888;44.696;10.522;2023-02-17T01:10:21;101914.34;;;3.25;100.00
56006;BME280;41888;44.696;10.522;2023-02-17T01:12:47;101912.28;;;3.28;100.00
56006;BME280;41888;44.696;10.522;2023-02-17T01:15:13;101914.34;;;3.36;100.00
56006;BME280;41888;44.696;10.522;2023-02-17T01:17:40;101910.75;;;3.37;100.00
56006;BME280;41888;44.696;10.522;2023-02-17T01:20:06;101903.78;;;3.47;100.00
56006;BME280;41888;44.696;10.522;2023-02-17T01:22:33;101902.88;;;3.26;100.00
56006;BME280;41888;44.696;10.522;2023-02-17T01:24:59;101906.19;;;3.28;100.00
56006;BME280;41888;44.696;10.522;2023-02-17T01:27:25;101900.22;;;3.37;100.00
56006;BME280;41888;44.696;10.522;2023-02-17T01:29:51;101896.78;;;3.25;100.00
56006;BME280;41888;44.696;10.522;2023-02-17T01:32:17;101888.06;;;2.91;100.00
56006;BME280;41888;44.696;10.522;2023-02-17T01:34:43;101879.00;;;2.73;100.00
56006;BME280;41888;44.696;10.522;2023-02-17T01:37:10;101878.38;;;2.59;100.00
56006;BME280;41888;44.696;10.522;2023-02-17T01:39:36;101877.28;;;2.61;100.00
56006;BME280;41888;44.696;10.522;2023-02-17T01:42:02;101875.03;;;2.57;100.00
56006;BME280;41888;44.696;10.522;2023-02-17T01:44:31;101874.09;;;2.69;100.00
56006;BME280;41888;44.696;10.522;2023-02-17T01:46:58;101872.88;;;2.62;100.00
56006;BME280;41888;44.696;10.522;2023-02-17T01:49:32;101863.28;;;2.27;100.00
56006;BME280;41888;44.696;10.522;2023-02-17T01:52:23;101867.94;;;2.35;100.00
56006;BME280;41888;44.696;10.522;2023-02-17T01:54:56;101877.72;;;2.33;100.00
56006;BME280;41888;44.696;10.522;2023-02-17T01:57:26;101869.59;;;2.25;100.00
56006;BME280;41888;44.696;10.522;2023-02-17T01:59:55;101874.19;;;1.99;100.00
56006;BME280;41888;44.696;10.522;2023-02-17T02:02:22;101866.50;;;1.85;100.00
56006;BME280;41888;44.696;10.522;2023-02-17T02:04:51;101863.19;;;1.94;100.00
56006;BME280;41888;44.696;10.522;2023-02-17T02:07:22;101857.00;;;1.95;100.00
56006;BME280;41888;44.696;10.522;2023-02-17T02:09:53;101850.94;;;2.05;100.00
56006;BME280;41888;44.696;10.522;2023-02-17T02:12:25;101849.47;;;2.01;100.00
56006;BME280;41888;44.696;10.522;2023-02-17T02:14:55;101857.94;;;1.70;100.00
56006;BME280;41888;44.696;10.522;2023-02-17T02:33:45;101878.88;;;1.83;100.00
56006;BME280;41888;44.696;10.522;2023-02-17T02:36:26;101876.59;;;1.78;100.00
56006;BME280;41888;44.696;10.522;2023-02-17T02:39:03;101872.47;;;1.63;100.00
56006;BME280;41888;44.696;10.522;2023-02-17T02:41:36;101879.00;;;1.57;100.00
56006;BME280;41888;44.696;10.522;2023-02-17T02:44:05;101871.97;;;1.58;100.00
56006;BME280;41888;44.696;10.522;2023-02-17T02:46:32;101867.88;;;1.54;100.00
56006;BME280;41888;44.696;10.522;2023-02-17T02:48:59;101865.94;;;1.21;100.00
56006;BME280;41888;44.696;10.522;2023-02-17T03:07:39;101866.66;;;1.70;100.00
56006;BME280;41888;44.696;10.522;2023-02-17T03:10:06;101865.41;;;1.52;100.00
56006;BME280;41888;44.696;10.522;2023-02-17T03:12:33;101865.91;;;1.57;100.00
56006;BME280;41888;44.696;10.522;2023-02-17T03:15:17;101866.06;;;1.67;100.00
56006;BME280;41888;44.696;10.522;2023-02-17T03:17:45;101868.63;;;1.80;100.00
56006;BME280;41888;44.696;10.522;2023-02-17T03:20:12;101866.78;;;1.69;100.00
56006;BME280;41888;44.696;10.522;2023-02-17T03:22:43;101873.03;;;1.79;100.00
56006;BME280;41888;44.696;10.522;2023-02-17T03:25:10;101869.97;;;1.96;100.00
56006;BME280;41888;44.696;10.522;2023-02-17T03:27:36;101869.66;;;2.12;100.00
56006;BME280;41888;44.696;10.522;2023-02-17T03:30:03;101865.97;;;2.03;100.00
56006;BME280;41888;44.696;10.522;2023-02-17T03:32:29;101864.78;;;2.07;100.00
56006;BME280;41888;44.696;10.522;2023-02-17T03:34:55;101873.47;;;2.08;100.00
56006;BME280;41888;44.696;10.522;2023-02-17T03:37:21;101876.91;;;1.97;100.00
56006;BME280;41888;44.696;10.522;2023-02-17T03:39:47;101872.91;;;1.81;100.00
56006;BME280;41888;44.696;10.522;2023-02-17T03:42:14;101865.72;;;1.72;100.00
56006;BME280;41888;44.696;10.522;2023-02-17T03:44:40;101873.47;;;1.73;100.00
56006;BME280;41888;44.696;10.522;2023-02-17T03:47:06;101866.09;;;1.78;100.00
56006;BME280;41888;44.696;10.522;2023-02-17T03:49:32;101865.28;;;1.78;100.00
56006;BME280;41888;44.696;10.522;2023-02-17T03:51:58;101862.06;;;1.85;100.00
56006;BME280;41888;44.696;10.522;2023-02-17T03:54:25;101874.69;;;1.80;100.00
56006;BME280;41888;44.696;10.522;2023-02-17T03:56:52;101871.09;;;2.05;100.00
56006;BME280;41888;44.696;10.522;2023-02-17T03:59:18;101872.69;;;2.19;100.00
56006;BME280;41888;44.696;10.522;2023-02-17T04:01:44;101875.44;;;2.28;100.00
56006;BME280;41888;44.696;10.522;2023-02-17T04:04:10;101872.81;;;2.28;100.00
56006;BME280;41888;44.696;10.522;2023-02-17T04:06:37;101876.09;;;2.08;100.00
56006;BME280;41888;44.696;10.522;2023-02-17T04:09:03;101880.16;;;2.01;100.00
56006;BME280;41888;44.696;10.522;2023-02-17T04:11:30;101883.03;;;1.74;100.00
56006;BME280;41888;44.696;10.522;2023-02-17T04:13:56;101890.06;;;1.74;100.00
56006;BME280;41888;44.696;10.522;2023-02-17T04:16:22;101885.31;;;1.55;100.00
56006;BME280;41888;44.696;10.522;2023-02-17T04:18:48;101884.91;;;1.48;100.00
56006;BME280;41888;44.696;10.522;2023-02-17T04:21:14;101888.16;;;1.52;100.00
56006;BME280;41888;44.696;10.522;2023-02-17T04:23:40;101884.09;;;1.48;100.00
56006;BME280;41888;44.696;10.522;2023-02-17T04:26:07;101885.09;;;1.58;100.00
56006;BME280;41888;44.696;10.522;2023-02-17T04:28:37;101884.81;;;1.50;100.00
56006;BME280;41888;44.696;10.522;2023-02-17T04:31:04;101884.03;;;1.60;100.00
56006;BME280;41888;44.696;10.522;2023-02-17T04:33:30;101885.19;;;1.80;100.00
56006;BME280;41888;44.696;10.522;2023-02-17T04:35:56;101884.97;;;1.83;100.00
56006;BME280;41888;44.696;10.522;2023-02-17T04:38:26;101887.16;;;1.65;100.00
56006;BME280;41888;44.696;10.522;2023-02-17T04:40:56;101891.84;;;1.73;100.00
56006;BME280;41888;44.696;10.522;2023-02-17T04:43:24;101898.03;;;1.72;100.00
56006;BME280;41888;44.696;10.522;2023-02-17T04:45:54;101899.22;;;1.68;100.00
56006;BME280;41888;44.696;10.522;2023-02-17T04:48:21;101896.44;;;1.58;100.00
56006;BME280;41888;44.696;10.522;2023-02-17T04:50:47;101886.16;;;1.55;100.00
56006;BME280;41888;44.696;10.522;2023-02-17T04:53:13;101890.84;;;1.63;100.00
56006;BME280;41888;44.696;10.522;2023-02-17T04:55:40;101891.84;;;1.73;100.00
56006;BME280;41888;44.696;10.522;2023-02-17T04:58:07;101889.00;;;1.76;100.00
56006;BME280;41888;44.696;10.522;2023-02-17T05:00:34;101887.31;;;1.75;100.00
56006;BME280;41888;44.696;10.522;2023-02-17T05:03:01;101881.28;;;1.62;100.00
56006;BME280;41888;44.696;10.522;2023-02-17T05:05:27;101890.09;;;1.61;100.00
56006;BME280;41888;44.696;10.522;2023-02-17T05:07:53;101884.97;;;1.59;100.00
56006;BME280;41888;44.696;10.522;2023-02-17T05:10:19;101886.66;;;1.60;100.00
56006;BME280;41888;44.696;10.522;2023-02-17T05:12:46;101894.69;;;1.70;100.00
56006;BME280;41888;44.696;10.522;2023-02-17T05:15:12;101890.16;;;1.72;100.00
56006;BME280;41888;44.696;10.522;2023-02-17T05:17:38;101890.44;;;1.80;100.00
56006;BME280;41888;44.696;10.522;2023-02-17T05:20:05;101897.59;;;1.78;100.00
56006;BME280;41888;44.696;10.522;2023-02-17T05:22:32;101891.13;;;1.71;100.00
56006;BME280;41888;44.696;10.522;2023-02-17T05:24:58;101886.59;;;1.73;100.00
56006;BME280;41888;44.696;10.522;2023-02-17T05:27:24;101889.09;;;1.75;100.00
56006;BME280;41888;44.696;10.522;2023-02-17T05:29:51;101890.66;;;1.77;100.00
56006;BME280;41888;44.696;10.522;2023-02-17T05:32:17;101892.56;;;1.75;100.00
56006;BME280;41888;44.696;10.522;2023-02-17T05:34:43;101891.56;;;1.65;100.00
56006;BME280;41888;44.696;10.522;2023-02-17T05:37:10;101892.00;;;1.59;100.00
56006;BME280;41888;44.696;10.522;2023-02-17T05:39:36;101894.34;;;1.51;100.00
56006;BME280;41888;44.696;10.522;2023-02-17T05:42:02;101893.34;;;1.41;100.00
56006;BME280;41888;44.696;10.522;2023-02-17T05:44:28;101898.28;;;1.33;100.00
56006;BME280;41888;44.696;10.522;2023-02-17T05:46:54;101900.09;;;1.32;100.00
56006;BME280;41888;44.696;10.522;2023-02-17T05:49:21;101900.28;;;1.29;100.00
56006;BME280;41888;44.696;10.522;2023-02-17T05:51:47;101896.91;;;1.27;100.00
56006;BME280;41888;44.696;10.522;2023-02-17T05:54:13;101895.28;;;1.13;100.00
56006;BME280;41888;44.696;10.522;2023-02-17T05:56:39;101896.28;;;0.87;100.00
56006;BME280;41888;44.696;10.522;2023-02-17T05:59:05;101890.22;;;0.74;100.00
56006;BME280;41888;44.696;10.522;2023-02-17T06:01:31;101899.31;;;0.81;100.00
56006;BME280;41888;44.696;10.522;2023-02-17T06:03:58;101898.34;;;1.07;100.00
56006;BME280;41888;44.696;10.522;2023-02-17T06:06:24;101901.47;;;1.12;100.00
56006;BME280;41888;44.696;10.522;2023-02-17T06:08:51;101911.38;;;1.33;100.00
56006;BME280;41888;44.696;10.522;2023-02-17T06:11:17;101901.78;;;1.57;100.00
56006;BME280;41888;44.696;10.522;2023-02-17T06:13:43;101908.13;;;1.65;100.00
56006;BME280;41888;44.696;10.522;2023-02-17T06:16:09;101912.09;;;1.71;100.00
56006;BME280;41888;44.696;10.522;2023-02-17T06:18:35;101909.88;;;1.78;100.00
56006;BME280;41888;44.696;10.522;2023-02-17T06:21:02;101911.22;;;1.83;100.00
56006;BME280;41888;44.696;10.522;2023-02-17T06:23:28;101908.94;;;1.79;100.00
56006;BME280;41888;44.696;10.522;2023-02-17T06:25:54;101910.91;;;1.75;100.00
56006;BME280;41888;44.696;10.522;2023-02-17T06:28:20;101912.25;;;1.81;100.00
56006;BME280;41888;44.696;10.522;2023-02-17T06:30:47;101909.31;;;1.85;100.00
56006;BME280;41888;44.696;10.522;2023-02-17T06:33:13;101921.91;;;1.80;100.00
56006;BME280;41888;44.696;10.522;2023-02-17T06:35:39;101917.56;;;1.92;100.00
56006;BME280;41888;44.696;10.522;2023-02-17T06:38:05;101916.97;;;1.88;100.00
56006;BME280;41888;44.696;10.522;2023-02-17T06:40:34;101926.31;;;2.27;100.00
56006;BME280;41888;44.696;10.522;2023-02-17T06:43:00;101927.81;;;2.65;100.00
56006;BME280;41888;44.696;10.522;2023-02-17T06:45:26;101930.47;;;2.87;100.00
56006;BME280;41888;44.696;10.522;2023-02-17T06:47:52;101936.34;;;2.90;100.00
56006;BME280;41888;44.696;10.522;2023-02-17T06:50:18;101942.75;;;2.75;100.00
56006;BME280;41888;44.696;10.522;2023-02-17T06:52:46;101951.13;;;2.80;100.00
56006;BME280;41888;44.696;10.522;2023-02-17T06:55:12;101953.66;;;2.82;100.00
56006;BME280;41888;44.696;10.522;2023-02-17T06:57:38;101948.63;;;2.68;100.00
56006;BME280;41888;44.696;10.522;2023-02-17T07:00:07;101950.19;;;2.81;100.00
56006;BME280;41888;44.696;10.522;2023-02-17T07:02:36;101950.19;;;2.81;100.00
56006;BME280;41888;44.696;10.522;2023-02-17T07:05:02;101948.78;;;3.00;100.00
56006;BME280;41888;44.696;10.522;2023-02-17T07:07:28;101957.38;;;3.24;100.00
56006;BME280;41888;44.696;10.522;2023-02-17T07:09:55;101949.75;;;3.10;100.00
56006;BME280;41888;44.696;10.522;2023-02-17T07:12:21;101952.59;;;3.29;100.00
56006;BME280;41888;44.696;10.522;2023-02-17T07:14:47;101942.31;;;3.26;100.00
56006;BME280;41888;44.696;10.522;2023-02-17T07:17:13;101951.38;;;3.44;100.00
56006;BME280;41888;44.696;10.522;2023-02-17T07:19:40;101955.41;;;3.70;100.00
56006;BME280;41888;44.696;10.522;2023-02-17T07:22:06;101959.97;;;4.11;100.00
56006;BME280;41888;44.696;10.522;2023-02-17T07:24:32;101960.84;;;4.33;100.00
56006;BME280;41888;44.696;10.522;2023-02-17T07:26:59;101956.09;;;4.47;100.00
56006;BME280;41888;44.696;10.522;2023-02-17T07:29:26;101969.00;;;4.50;100.00
56006;BME280;41888;44.696;10.522;2023-02-17T07:31:52;101964.91;;;4.57;100.00
56006;BME280;41888;44.696;10.522;2023-02-17T07:34:19;101960.84;;;4.74;100.00
56006;BME280;41888;44.696;10.522;2023-02-17T07:36:45;101959.53;;;4.89;100.00
56006;BME280;41888;44.696;10.522;2023-02-17T07:39:11;101961.25;;;5.00;100.00
56006;BME280;41888;44.696;10.522;2023-02-17T07:41:37;101953.06;;;5.03;100.00
56006;BME280;41888;44.696;10.522;2023-02-17T07:44:03;101957.50;;;5.23;100.00
56006;BME280;41888;44.696;10.522;2023-02-17T07:46:30;101959.22;;;5.34;100.00
56006;BME280;41888;44.696;10.522;2023-02-17T07:48:57;101962.91;;;5.71;100.00
56006;BME280;41888;44.696;10.522;2023-02-17T07:51:23;101977.72;;;5.93;100.00
56006;BME280;41888;44.696;10.522;2023-02-17T07:53:50;101976.91;;;6.21;100.00
56006;BME280;41888;44.696;10.522;2023-02-17T07:56:19;101978.00;;;6.57;100.00
56006;BME280;41888;44.696;10.522;2023-02-17T07:58:46;101970.47;;;6.82;100.00
56006;BME280;41888;44.696;10.522;2023-02-17T08:01:21;101981.75;;;7.20;100.00
56006;BME280;41888;44.696;10.522;2023-02-17T08:03:49;101974.78;;;7.29;100.00
56006;BME280;41888;44.696;10.522;2023-02-17T08:06:18;101980.41;;;7.44;100.00
56006;BME280;41888;44.696;10.522;2023-02-17T08:08:45;101982.06;;;7.72;100.00
56006;BME280;41888;44.696;10.522;2023-02-17T08:11:30;101988.25;;;7.90;100.00
56006;BME280;41888;44.696;10.522;2023-02-17T08:14:15;101979.09;;;8.20;100.00
56006;BME280;41888;44.696;10.522;2023-02-17T08:16:42;101975.72;;;8.45;100.00
56006;BME280;41888;44.696;10.522;2023-02-17T08:19:08;101983.97;;;8.86;100.00
56006;BME280;41888;44.696;10.522;2023-02-17T08:21:34;101979.00;;;9.09;100.00
56006;BME280;41888;44.696;10.522;2023-02-17T08:24:01;101987.41;;;9.30;100.00
56006;BME280;41888;44.696;10.522;2023-02-17T08:26:27;101980.38;;;9.55;100.00
56006;BME280;41888;44.696;10.522;2023-02-17T08:28:54;101976.84;;;9.88;100.00
56006;BME280;41888;44.696;10.522;2023-02-17T08:31:22;101976.25;;;10.27;100.00
56006;BME280;41888;44.696;10.522;2023-02-17T08:33:49;101980.25;;;10.55;100.00
56006;BME280;41888;44.696;10.522;2023-02-17T08:36:16;101975.41;;;10.83;100.00
56006;BME280;41888;44.696;10.522;2023-02-17T08:38:43;101977.03;;;11.08;100.00
56006;BME280;41888;44.696;10.522;2023-02-17T08:41:20;101979.66;;;11.24;100.00
56006;BME280;41888;44.696;10.522;2023-02-17T08:43:47;101977.81;;;11.64;97.87
56006;BME280;41888;44.696;10.522;2023-02-17T08:46:14;101983.97;;;12.49;94.68
56006;BME280;41888;44.696;10.522;2023-02-17T08:48:41;101984.09;;;13.07;87.50
56006;BME280;41888;44.696;10.522;2023-02-17T08:51:07;101974.56;;;13.42;84.28
56006;BME280;41888;44.696;10.522;2023-02-17T08:53:36;101986.59;;;14.04;82.29
56006;BME280;41888;44.696;10.522;2023-02-17T08:56:02;101985.03;;;15.01;77.31
56006;BME280;41888;44.696;10.522;2023-02-17T08:58:29;101990.06;;;15.99;70.69
56006;BME280;41888;44.696;10.522;2023-02-17T09:00:55;101988.03;;;17.26;63.06
56006;BME280;41888;44.696;10.522;2023-02-17T09:03:21;102006.00;;;18.90;56.21
56006;BME280;41888;44.696;10.522;2023-02-17T09:05:47;101997.78;;;20.24;50.09
56006;BME280;41888;44.696;10.522;2023-02-17T09:08:13;101993.13;;;20.02;47.97
56006;BME280;41888;44.696;10.522;2023-02-17T09:10:40;102008.06;;;21.22;46.03
56006;BME280;41888;44.696;10.522;2023-02-17T09:13:06;102009.81;;;21.80;42.72
56006;BME280;41888;44.696;10.522;2023-02-17T09:15:32;102011.22;;;22.39;41.50
56006;BME280;41888;44.696;10.522;2023-02-17T09:17:58;102015.97;;;22.77;39.13
56006;BME280;41888;44.696;10.522;2023-02-17T09:20:25;102019.34;;;23.23;38.99
56006;BME280;41888;44.696;10.522;2023-02-17T09:22:52;102020.06;;;23.35;37.78
56006;BME280;41888;44.696;10.522;2023-02-17T09:25:18;102021.03;;;22.90;38.63
56006;BME280;41888;44.696;10.522;2023-02-17T09:27:44;102025.66;;;23.28;38.02
56006;BME280;41888;44.696;10.522;2023-02-17T09:30:11;102018.41;;;23.50;37.28
56006;BME280;41888;44.696;10.522;2023-02-17T09:32:40;102029.66;;;23.59;37.11
56006;BME280;41888;44.696;10.522;2023-02-17T09:35:09;102027.69;;;23.38;37.48
56006;BME280;41888;44.696;10.522;2023-02-17T09:37:36;102024.41;;;22.97;37.46
56006;BME280;41888;44.696;10.522;2023-02-17T09:40:02;102025.59;;;23.83;36.11
56006;BME280;41888;44.696;10.522;2023-02-17T09:42:29;102027.19;;;23.79;35.10
56006;BME280;41888;44.696;10.522;2023-02-17T09:45:01;102021.94;;;23.94;35.99
56006;BME280;41888;44.696;10.522;2023-02-17T09:47:42;102031.28;;;24.04;35.50
56006;BME280;41888;44.696;10.522;2023-02-17T09:50:34;102024.16;;;23.15;36.90
56006;BME280;41888;44.696;10.522;2023-02-17T09:55:55;102023.06;;;22.50;37.46
56006;BME280;41888;44.696;10.522;2023-02-17T09:58:59;102029.88;;;23.36;36.53
56006;BME280;41888;44.696;10.522;2023-02-17T10:01:21;102022.16;;;24.73;33.72
56006;BME280;41888;44.696;10.522;2023-02-17T10:04:06;102029.78;;;24.76;33.49
56006;BME280;41888;44.696;10.522;2023-02-17T10:06:42;102028.63;;;24.35;34.46
56006;BME280;41888;44.696;10.522;2023-02-17T10:14:32;102033.66;;;24.22;34.17
56006;BME280;41888;44.696;10.522;2023-02-17T10:17:25;102027.75;;;24.57;33.77
56006;BME280;41888;44.696;10.522;2023-02-17T10:20:06;102029.47;;;24.14;34.74
56006;BME280;41888;44.696;10.522;2023-02-17T10:22:33;102042.94;;;23.77;34.99
56006;BME280;41888;44.696;10.522;2023-02-17T10:25:00;102032.44;;;23.64;35.13
56006;BME280;41888;44.696;10.522;2023-02-17T10:32:48;102022.03;;;24.58;33.76
56006;BME280;41888;44.696;10.522;2023-02-17T10:35:24;102019.16;;;25.07;33.17
56006;BME280;41888;44.696;10.522;2023-02-17T10:38:16;102024.03;;;25.00;32.94
56006;BME280;41888;44.696;10.522;2023-02-17T10:40:46;102025.50;;;25.22;32.60
56006;BME280;41888;44.696;10.522;2023-02-17T10:43:23;102016.16;;;24.71;33.33
56006;BME280;41888;44.696;10.522;2023-02-17T10:45:52;102011.06;;;23.73;34.55
56006;BME280;41888;44.696;10.522;2023-02-17T10:48:27;102004.28;;;24.51;33.33
56006;BME280;41888;44.696;10.522;2023-02-17T10:50:59;102009.75;;;23.53;34.14
56006;BME280;41888;44.696;10.522;2023-02-17T10:53:31;102005.84;;;24.15;33.51
56006;BME280;41888;44.696;10.522;2023-02-17T10:56:12;101999.38;;;24.85;32.26
56006;BME280;41888;44.696;10.522;2023-02-17T10:59:02;102005.47;;;24.97;32.28
56006;BME280;41888;44.696;10.522;2023-02-17T11:01:32;102007.34;;;24.59;32.76
56006;BME280;41888;44.696;10.522;2023-02-17T11:04:03;102003.16;;;23.71;34.30
56006;BME280;41888;44.696;10.522;2023-02-17T11:06:30;102002.88;;;24.16;33.67
56006;BME280;41888;44.696;10.522;2023-02-17T11:09:02;101995.84;;;23.11;35.25
56006;BME280;41888;44.696;10.522;2023-02-17T11:11:31;101989.25;;;23.89;34.25
56006;BME280;41888;44.696;10.522;2023-02-17T11:16:37;101982.63;;;22.65;35.65
56006;BME280;41888;44.696;10.522;2023-02-17T11:19:06;101985.59;;;23.35;35.61
56006;BME280;41888;44.696;10.522;2023-02-17T11:21:43;101970.38;;;23.78;34.81
56006;BME280;41888;44.696;10.522;2023-02-17T11:24:13;101975.91;;;23.23;35.18
56006;BME280;41888;44.696;10.522;2023-02-17T11:26:39;101961.25;;;22.85;34.93
56006;BME280;41888;44.696;10.522;2023-02-17T11:29:15;101967.19;;;23.21;35.30
56006;BME280;41888;44.696;10.522;2023-02-17T11:31:52;101952.72;;;22.60;35.93
56006;BME280;41888;44.696;10.522;2023-02-17T11:34:27;101953.38;;;22.50;36.22
56006;BME280;41888;44.696;10.522;2023-02-17T11:37:21;101954.88;;;23.35;35.31
56006;BME280;41888;44.696;10.522;2023-02-17T11:39:50;101944.44;;;23.27;35.15
56006;BME280;41888;44.696;10.522;2023-02-17T11:42:26;101947.16;;;23.70;34.92
56006;BME280;41888;44.696;10.522;2023-02-17T11:44:56;101935.53;;;23.75;34.88
56006;BME280;41888;44.696;10.522;2023-02-17T11:47:57;101926.72;;;23.41;35.75
56006;BME280;41888;44.696;10.522;2023-02-17T11:50:46;101928.34;;;22.98;36.50
56006;BME280;41888;44.696;10.522;2023-02-17T11:56:24;101910.13;;;22.44;37.14
56006;BME280;41888;44.696;10.522;2023-02-17T12:10:21;101878.19;;;20.76;41.08
56006;BME280;41888;44.696;10.522;2023-02-17T12:18:43;101877.53;;;18.03;48.62
56006;BME280;41888;44.696;10.522;2023-02-17T12:24:12;101862.03;;;18.91;46.78
56006;BME280;41888;44.696;10.522;2023-02-17T12:26:45;101859.53;;;18.72;47.18
56006;BME280;41888;44.696;10.522;2023-02-17T12:37:18;101834.59;;;17.46;51.23
56006;BME280;41888;44.696;10.522;2023-02-17T12:39:56;101842.75;;;17.39;52.87
56006;BME280;41888;44.696;10.522;2023-02-17T12:42:51;101833.31;;;18.36;50.40
56006;BME280;41888;44.696;10.522;2023-02-17T12:45:34;101832.41;;;19.51;47.26
56006;BME280;41888;44.696;10.522;2023-02-17T12:51:10;101822.66;;;18.47;48.60
56006;BME280;41888;44.696;10.522;2023-02-17T12:57:05;101821.66;;;18.85;48.42
56006;BME280;41888;44.696;10.522;2023-02-17T12:59:39;101816.84;;;18.26;49.37
56006;BME280;41888;44.696;10.522;2023-02-17T13:02:09;101816.88;;;18.44;50.07
56006;BME280;41888;44.696;10.522;2023-02-17T13:04:36;101830.59;;;18.18;49.97
56006;BME280;41888;44.696;10.522;2023-02-17T13:09:54;101811.75;;;18.18;51.51
56006;BME280;41888;44.696;10.522;2023-02-17T13:14:48;101794.63;;;18.55;49.95
56006;BME280;41888;44.696;10.522;2023-02-17T13:19:47;101787.41;;;18.24;50.47
56006;BME280;41888;44.696;10.522;2023-02-17T13:22:21;101804.31;;;17.88;51.51
56006;BME280;41888;44.696;10.522;2023-02-17T13:24:53;101794.41;;;17.82;52.02
56006;BME280;41888;44.696;10.522;2023-02-17T13:32:34;101784.59;;;16.94;53.69
56006;BME280;41888;44.696;10.522;2023-02-17T13:37:49;101784.09;;;17.16;53.87
56006;BME280;41888;44.696;10.522;2023-02-17T13:47:45;101774.31;;;16.84;56.74
56006;BME280;41888;44.696;10.522;2023-02-17T13:50:33;101779.19;;;17.07;56.25
56006;BME280;41888;44.696;10.522;2023-02-17T13:53:02;101777.41;;;17.25;54.71
56006;BME280;41888;44.696;10.522;2023-02-17T13:55:28;101769.97;;;17.27;54.36
56006;BME280;41888;44.696;10.522;2023-02-17T13:57:57;101773.66;;;17.33;54.09
56006;BME280;41888;44.696;10.522;2023-02-17T14:00:29;101773.34;;;17.48;53.85
56006;BME280;41888;44.696;10.522;2023-02-17T14:05:46;101768.88;;;16.97;54.62
56006;BME280;41888;44.696;10.522;2023-02-17T14:08:33;101767.38;;;17.08;54.16
56006;BME280;41888;44.696;10.522;2023-02-17T14:11:12;101766.47;;;17.20;54.01
56006;BME280;41888;44.696;10.522;2023-02-17T14:13:41;101763.38;;;17.23;53.85
56006;BME280;41888;44.696;10.522;2023-02-17T14:16:34;101759.97;;;17.35;53.47
56006;BME280;41888;44.696;10.522;2023-02-17T14:19:06;101759.16;;;17.34;53.39
56006;BME280;41888;44.696;10.522;2023-02-17T14:21:34;101758.81;;;17.55;52.39
56006;BME280;41888;44.696;10.522;2023-02-17T14:24:01;101758.22;;;17.47;53.05
56006;BME280;41888;44.696;10.522;2023-02-17T14:26:45;101753.53;;;17.04;54.64
56006;BME280;41888;44.696;10.522;2023-02-17T14:29:12;101753.00;;;16.05;57.33
56006;BME280;41888;44.696;10.522;2023-02-17T14:31:43;101747.84;;;15.90;58.25
56006;BME280;41888;44.696;10.522;2023-02-17T14:36:52;101755.09;;;15.63;60.99
56006;BME280;41888;44.696;10.522;2023-02-17T14:39:18;101749.44;;;15.32;63.19
56006;BME280;41888;44.696;10.522;2023-02-17T14:41:45;101745.50;;;15.28;63.96
56006;BME280;41888;44.696;10.522;2023-02-17T14:44:11;101742.38;;;15.18;64.77
56006;BME280;41888;44.696;10.522;2023-02-17T14:46:37;101747.94;;;15.10;64.66